createdAt,value
2019-05-18T00:17:29.495Z,14.70
2019-05-18T00:32:37.486Z,12.47
2019-05-18T00:47:45.331Z,10.70
2019-05-18T01:02:52.485Z,12.45
2019-05-18T01:18:02.343Z,10.00
2019-05-18T01:33:09.886Z,10.72
2019-05-18T01:48:18.327Z,10.00
2019-05-18T02:03:26.049Z,12.15
2019-05-18T02:18:33.097Z,10.78
2019-05-18T02:33:40.961Z,10.15
2019-05-18T02:48:50.677Z,10.08
2019-05-18T03:03:57.675Z,10.50
2019-05-18T03:19:08.949Z,8.83
2019-05-18T03:34:15.601Z,8.73
2019-05-18T03:49:27.497Z,7.75
2019-05-18T04:04:35.052Z,7.45
2019-05-18T04:19:46.837Z,7.42
2019-05-18T04:34:52.235Z,6.67
2019-05-18T04:50:05.649Z,5.45
2019-05-18T05:05:10.505Z,5.10
2019-05-18T05:20:20.129Z,4.90
2019-05-18T05:35:29.765Z,5.15
2019-05-18T05:50:36.888Z,4.97
2019-05-18T06:05:43.720Z,7.42
2019-05-18T06:20:52.111Z,11.83
2019-05-18T06:35:59.421Z,9.73
2019-05-18T07:06:14.028Z,8.08
2019-05-18T07:21:22.646Z,7.03
2019-05-18T07:36:29.921Z,4.42
2019-05-18T07:51:39.098Z,5.20
2019-05-18T08:06:46.624Z,4.00
2019-05-18T08:21:54.496Z,2.90
2019-05-18T08:37:01.701Z,2.52
2019-05-18T08:52:08.934Z,3.83
2019-05-18T09:07:16.389Z,3.90
2019-05-18T09:22:24.300Z,4.30
2019-05-18T09:37:31.448Z,3.77
2019-05-18T09:52:45.213Z,4.17
2019-05-18T10:07:49.416Z,3.72
2019-05-18T10:23:11.817Z,4.03
2019-05-18T10:38:05.014Z,3.60
2019-05-18T10:53:27.442Z,3.72
2019-05-18T11:08:20.310Z,4.25
2019-05-18T11:23:42.516Z,4.20
2019-05-18T11:38:38.805Z,4.47
2019-05-18T11:53:57.475Z,4.47
2019-05-18T12:08:58.110Z,3.85
2019-05-18T12:24:14.763Z,4.05
2019-05-18T12:39:13.619Z,3.80
2019-05-18T12:54:29.504Z,4.40
2019-05-18T13:09:32.983Z,2.55
2019-05-18T13:24:45.387Z,4.85
2019-05-18T13:39:54.153Z,4.92
2019-05-18T13:55:05.184Z,4.60
2019-05-18T14:10:13.552Z,5.22
2019-05-18T14:25:24.020Z,5.40
2019-05-18T14:40:30.947Z,5.20
2019-05-18T14:55:38.782Z,3.95
2019-05-18T15:10:45.443Z,4.72
2019-05-18T15:25:52.659Z,5.28
2019-05-18T15:40:59.703Z,4.50
2019-05-18T15:56:06.704Z,4.87
2019-05-18T16:11:13.436Z,7.40
2019-05-18T16:26:22.188Z,5.30
2019-05-18T16:41:29.916Z,3.47
2019-05-18T16:56:37.680Z,4.40
2019-05-18T17:11:48.025Z,5.92
2019-05-18T17:26:56.145Z,5.22
2019-05-18T17:42:05.410Z,10.50
2019-05-18T17:57:12.603Z,11.55
2019-05-18T18:12:19.502Z,12.82
2019-05-18T18:42:35.378Z,14.03
2019-05-18T18:57:42.554Z,19.70
2019-05-18T19:12:49.591Z,14.60
2019-05-18T19:27:57.610Z,18.95
2019-05-18T19:43:04.647Z,21.65
2019-05-18T19:58:12.768Z,21.37
2019-05-18T20:13:20.135Z,20.85
2019-05-18T20:28:29.551Z,26.57
2019-05-18T20:43:37.431Z,16.15
2019-05-18T20:58:44.689Z,15.53
2019-05-18T21:13:51.654Z,13.20
2019-05-18T21:29:00.975Z,13.48
2019-05-18T21:44:08.168Z,12.85
2019-05-18T22:14:22.284Z,11.65
2019-05-18T22:29:29.420Z,12.90
2019-05-18T22:44:36.435Z,10.82
2019-05-18T22:59:45.722Z,11.50
2019-05-18T23:14:52.588Z,11.60
2019-05-18T23:29:59.622Z,11.12
2019-05-18T23:45:10.258Z,9.88
